sensor_id;sensor_type;location;lat;lon;timestamp;P1;durP1;ratioP1;P2;durP2;ratioP2
8887;SDS011;4480;52.370;9.748;2023-07-24T00:00:04;2.70;;;1.77;;
8887;SDS011;4480;52.370;9.748;2023-07-24T00:02:34;2.17;;;1.97;;
8887;SDS011;4480;52.370;9.748;2023-07-24T00:05:00;2.77;;;1.77;;
8887;SDS011;4480;52.370;9.748;2023-07-24T00:07:27;1.70;;;1.53;;
8887;SDS011;4480;52.370;9.748;2023-07-24T00:09:54;2.03;;;1.87;;
8887;SDS011;4480;52.370;9.748;2023-07-24T00:12:21;2.30;;;2.10;;
8887;SDS011;4480;52.370;9.748;2023-07-24T00:14:48;1.80;;;1.70;;
8887;SDS011;4480;52.370;9.748;2023-07-24T00:17:15;2.87;;;2.10;;
8887;SDS011;4480;52.370;9.748;2023-07-24T00:19:43;3.10;;;1.90;;
8887;SDS011;4480;52.370;9.748;2023-07-24T00:22:10;1.73;;;1.63;;
8887;SDS011;4480;52.370;9.748;2023-07-24T00:24:36;2.10;;;1.90;;
8887;SDS011;4480;52.370;9.748;2023-07-24T00:27:03;2.30;;;2.10;;
8887;SDS011;4480;52.370;9.748;2023-07-24T00:29:30;2.20;;;2.00;;
8887;SDS011;4480;52.370;9.748;2023-07-24T00:31:57;2.53;;;2.03;;
8887;SDS011;4480;52.370;9.748;2023-07-24T00:34:24;3.50;;;2.00;;
8887;SDS011;4480;52.370;9.748;2023-07-24T00:36:52;2.50;;;2.30;;
8887;SDS011;4480;52.370;9.748;2023-07-24T00:39:19;2.20;;;2.00;;
8887;SDS011;4480;52.370;9.748;2023-07-24T00:41:46;1.93;;;1.83;;
8887;SDS011;4480;52.370;9.748;2023-07-24T00:44:12;3.73;;;2.53;;
8887;SDS011;4480;52.370;9.748;2023-07-24T00:46:39;2.60;;;2.40;;
8887;SDS011;4480;52.370;9.748;2023-07-24T00:49:06;2.50;;;2.30;;
8887;SDS011;4480;52.370;9.748;2023-07-24T00:51:34;2.27;;;2.07;;
8887;SDS011;4480;52.370;9.748;2023-07-24T00:54:02;2.40;;;2.20;;
8887;SDS011;4480;52.370;9.748;2023-07-24T00:56:30;3.10;;;2.37;;
8887;SDS011;4480;52.370;9.748;2023-07-24T00:58:58;2.40;;;2.20;;
8887;SDS011;4480;52.370;9.748;2023-07-24T01:01:26;2.73;;;2.53;;
8887;SDS011;4480;52.370;9.748;2023-07-24T01:03:54;2.37;;;2.17;;
8887;SDS011;4480;52.370;9.748;2023-07-24T01:06:23;2.77;;;2.57;;
8887;SDS011;4480;52.370;9.748;2023-07-24T01:08:50;2.70;;;2.50;;
8887;SDS011;4480;52.370;9.748;2023-07-24T01:11:19;2.70;;;2.50;;
8887;SDS011;4480;52.370;9.748;2023-07-24T01:13:48;3.30;;;2.83;;
8887;SDS011;4480;52.370;9.748;2023-07-24T01:16:21;3.30;;;2.87;;
8887;SDS011;4480;52.370;9.748;2023-07-24T01:18:52;2.90;;;2.63;;
8887;SDS011;4480;52.370;9.748;2023-07-24T01:21:23;3.43;;;3.13;;
8887;SDS011;4480;52.370;9.748;2023-07-24T01:23:58;3.00;;;2.70;;
8887;SDS011;4480;52.370;9.748;2023-07-24T01:26:42;3.13;;;2.83;;
8887;SDS011;4480;52.370;9.748;2023-07-24T01:29:09;3.23;;;2.93;;
8887;SDS011;4480;52.370;9.748;2023-07-24T01:31:36;4.00;;;3.30;;
8887;SDS011;4480;52.370;9.748;2023-07-24T01:34:02;3.80;;;3.33;;
8887;SDS011;4480;52.370;9.748;2023-07-24T01:36:29;3.63;;;3.33;;
8887;SDS011;4480;52.370;9.748;2023-07-24T01:38:56;3.47;;;3.17;;
8887;SDS011;4480;52.370;9.748;2023-07-24T01:41:23;4.20;;;3.80;;
8887;SDS011;4480;52.370;9.748;2023-07-24T01:43:53;4.00;;;3.60;;
8887;SDS011;4480;52.370;9.748;2023-07-24T01:46:19;3.60;;;3.30;;
8887;SDS011;4480;52.370;9.748;2023-07-24T01:48:46;3.83;;;3.53;;
8887;SDS011;4480;52.370;9.748;2023-07-24T01:51:13;3.70;;;3.40;;
8887;SDS011;4480;52.370;9.748;2023-07-24T01:53:40;4.03;;;3.53;;
8887;SDS011;4480;52.370;9.748;2023-07-24T01:56:06;4.27;;;3.87;;
8887;SDS011;4480;52.370;9.748;2023-07-24T01:58:33;4.60;;;4.20;;
8887;SDS011;4480;52.370;9.748;2023-07-24T02:01:01;4.47;;;4.07;;
8887;SDS011;4480;52.370;9.748;2023-07-24T02:03:28;4.20;;;3.80;;
8887;SDS011;4480;52.370;9.748;2023-07-24T02:05:55;4.70;;;4.30;;
8887;SDS011;4480;52.370;9.748;2023-07-24T02:08:22;4.70;;;3.53;;
8887;SDS011;4480;52.370;9.748;2023-07-24T02:10:48;4.30;;;3.63;;
8887;SDS011;4480;52.370;9.748;2023-07-24T02:13:16;3.73;;;3.43;;
8887;SDS011;4480;52.370;9.748;2023-07-24T02:15:42;4.07;;;3.47;;
8887;SDS011;4480;52.370;9.748;2023-07-24T02:18:11;3.70;;;3.37;;
8887;SDS011;4480;52.370;9.748;2023-07-24T02:20:37;3.53;;;3.23;;
8887;SDS011;4480;52.370;9.748;2023-07-24T02:23:05;4.20;;;3.90;;
8887;SDS011;4480;52.370;9.748;2023-07-24T02:25:32;4.20;;;3.80;;
8887;SDS011;4480;52.370;9.748;2023-07-24T02:28:01;4.37;;;4.00;;
8887;SDS011;4480;52.370;9.748;2023-07-24T02:30:28;4.27;;;3.97;;
8887;SDS011;4480;52.370;9.748;2023-07-24T02:32:55;4.47;;;3.90;;
8887;SDS011;4480;52.370;9.748;2023-07-24T02:35:23;3.90;;;3.60;;
8887;SDS011;4480;52.370;9.748;2023-07-24T02:37:50;4.10;;;3.80;;
8887;SDS011;4480;52.370;9.748;2023-07-24T02:40:17;4.80;;;4.37;;
8887;SDS011;4480;52.370;9.748;2023-07-24T02:42:43;3.80;;;3.50;;
8887;SDS011;4480;52.370;9.748;2023-07-24T02:45:10;4.20;;;3.83;;
8887;SDS011;4480;52.370;9.748;2023-07-24T02:47:37;4.00;;;3.70;;
8887;SDS011;4480;52.370;9.748;2023-07-24T02:50:04;4.53;;;4.13;;
8887;SDS011;4480;52.370;9.748;2023-07-24T02:52:33;4.67;;;4.27;;
8887;SDS011;4480;52.370;9.748;2023-07-24T02:54:59;4.63;;;4.23;;
8887;SDS011;4480;52.370;9.748;2023-07-24T02:57:26;4.37;;;4.00;;
8887;SDS011;4480;52.370;9.748;2023-07-24T02:59:53;4.57;;;4.17;;
8887;SDS011;4480;52.370;9.748;2023-07-24T03:02:20;4.47;;;4.07;;
8887;SDS011;4480;52.370;9.748;2023-07-24T03:04:46;4.50;;;4.10;;
8887;SDS011;4480;52.370;9.748;2023-07-24T03:07:13;4.83;;;4.43;;
8887;SDS011;4480;52.370;9.748;2023-07-24T03:09:41;6.33;;;4.20;;
8887;SDS011;4480;52.370;9.748;2023-07-24T03:12:08;4.90;;;4.50;;
8887;SDS011;4480;52.370;9.748;2023-07-24T03:14:36;4.60;;;4.20;;
8887;SDS011;4480;52.370;9.748;2023-07-24T03:17:03;4.80;;;4.50;;
8887;SDS011;4480;52.370;9.748;2023-07-24T03:19:30;4.40;;;4.00;;
8887;SDS011;4480;52.370;9.748;2023-07-24T03:21:56;4.00;;;3.70;;
8887;SDS011;4480;52.370;9.748;2023-07-24T03:24:23;3.13;;;2.83;;
8887;SDS011;4480;52.370;9.748;2023-07-24T03:26:51;3.70;;;3.40;;
8887;SDS011;4480;52.370;9.748;2023-07-24T03:29:18;2.80;;;2.57;;
8887;SDS011;4480;52.370;9.748;2023-07-24T03:31:45;3.40;;;3.10;;
8887;SDS011;4480;52.370;9.748;2023-07-24T03:34:12;2.93;;;2.63;;
8887;SDS011;4480;52.370;9.748;2023-07-24T03:36:38;2.67;;;2.47;;
8887;SDS011;4480;52.370;9.748;2023-07-24T03:39:06;3.57;;;2.60;;
8887;SDS011;4480;52.370;9.748;2023-07-24T03:41:33;2.50;;;2.30;;
8887;SDS011;4480;52.370;9.748;2023-07-24T03:44:01;2.73;;;2.33;;
8887;SDS011;4480;52.370;9.748;2023-07-24T03:46:28;2.27;;;2.07;;
8887;SDS011;4480;52.370;9.748;2023-07-24T03:48:54;2.43;;;2.17;;
8887;SDS011;4480;52.370;9.748;2023-07-24T03:51:21;3.10;;;2.37;;
8887;SDS011;4480;52.370;9.748;2023-07-24T03:53:48;2.63;;;2.43;;
8887;SDS011;4480;52.370;9.748;2023-07-24T03:56:15;2.80;;;2.00;;
8887;SDS011;4480;52.370;9.748;2023-07-24T03:58:42;2.30;;;2.10;;
8887;SDS011;4480;52.370;9.748;2023-07-24T04:01:10;3.70;;;2.90;;
8887;SDS011;4480;52.370;9.748;2023-07-24T04:03:37;2.37;;;2.17;;
8887;SDS011;4480;52.370;9.748;2023-07-24T04:06:04;2.23;;;1.80;;
8887;SDS011;4480;52.370;9.748;2023-07-24T04:11:59;3.40;;;2.27;;
8887;SDS011;4480;52.370;9.748;2023-07-24T04:14:26;5.37;;;2.30;;
8887;SDS011;4480;52.370;9.748;2023-07-24T04:16:53;3.53;;;2.80;;
8887;SDS011;4480;52.370;9.748;2023-07-24T04:19:20;3.40;;;2.63;;
8887;SDS011;4480;52.370;9.748;2023-07-24T04:21:47;3.10;;;2.50;;
8887;SDS011;4480;52.370;9.748;2023-07-24T04:24:14;2.50;;;2.30;;
8887;SDS011;4480;52.370;9.748;2023-07-24T04:26:40;2.63;;;2.10;;
8887;SDS011;4480;52.370;9.748;2023-07-24T04:29:09;2.77;;;2.50;;
8887;SDS011;4480;52.370;9.748;2023-07-24T04:31:35;2.80;;;2.03;;
8887;SDS011;4480;52.370;9.748;2023-07-24T04:34:02;4.30;;;3.90;;
8887;SDS011;4480;52.370;9.748;2023-07-24T04:36:29;2.50;;;2.30;;
8887;SDS011;4480;52.370;9.748;2023-07-24T04:38:56;2.77;;;2.10;;
8887;SDS011;4480;52.370;9.748;2023-07-24T04:41:22;2.50;;;2.10;;
8887;SDS011;4480;52.370;9.748;2023-07-24T04:43:49;3.83;;;2.60;;
8887;SDS011;4480;52.370;9.748;2023-07-24T04:46:17;2.33;;;1.77;;
8887;SDS011;4480;52.370;9.748;2023-07-24T04:48:44;2.47;;;2.10;;
8887;SDS011;4480;52.370;9.748;2023-07-24T04:51:11;3.33;;;1.83;;
8887;SDS011;4480;52.370;9.748;2023-07-24T04:53:37;2.27;;;1.93;;
8887;SDS011;4480;52.370;9.748;2023-07-24T04:56:04;3.07;;;2.20;;
8887;SDS011;4480;52.370;9.748;2023-07-24T04:58:31;2.33;;;2.07;;
8887;SDS011;4480;52.370;9.748;2023-07-24T05:01:01;3.47;;;2.10;;
8887;SDS011;4480;52.370;9.748;2023-07-24T05:03:30;2.07;;;1.87;;
8887;SDS011;4480;52.370;9.748;2023-07-24T05:05:57;2.23;;;2.00;;
8887;SDS011;4480;52.370;9.748;2023-07-24T05:08:23;3.33;;;2.33;;
8887;SDS011;4480;52.370;9.748;2023-07-24T05:10:53;2.43;;;2.17;;
8887;SDS011;4480;52.370;9.748;2023-07-24T05:13:21;3.00;;;2.10;;
8887;SDS011;4480;52.370;9.748;2023-07-24T05:15:48;2.20;;;1.83;;
8887;SDS011;4480;52.370;9.748;2023-07-24T05:18:15;1.97;;;1.77;;
8887;SDS011;4480;52.370;9.748;2023-07-24T05:20:46;2.43;;;2.23;;
8887;SDS011;4480;52.370;9.748;2023-07-24T05:23:16;3.63;;;2.60;;
8887;SDS011;4480;52.370;9.748;2023-07-24T05:25:43;2.30;;;1.93;;
8887;SDS011;4480;52.370;9.748;2023-07-24T05:28:10;2.07;;;1.87;;
8887;SDS011;4480;52.370;9.748;2023-07-24T05:30:36;4.60;;;2.50;;
8887;SDS011;4480;52.370;9.748;2023-07-24T05:33:03;2.00;;;1.70;;
8887;SDS011;4480;52.370;9.748;2023-07-24T05:35:30;3.73;;;3.03;;
8887;SDS011;4480;52.370;9.748;2023-07-24T05:37:58;3.03;;;2.60;;
8887;SDS011;4480;52.370;9.748;2023-07-24T05:40:25;3.20;;;2.60;;
8887;SDS011;4480;52.370;9.748;2023-07-24T05:42:53;2.50;;;2.03;;
8887;SDS011;4480;52.370;9.748;2023-07-24T05:45:19;2.83;;;2.17;;
8887;SDS011;4480;52.370;9.748;2023-07-24T05:47:46;2.00;;;1.53;;
8887;SDS011;4480;52.370;9.748;2023-07-24T05:50:13;4.00;;;2.30;;
8887;SDS011;4480;52.370;9.748;2023-07-24T05:52:40;3.20;;;2.43;;
8887;SDS011;4480;52.370;9.748;2023-07-24T05:55:08;2.90;;;2.23;;
8887;SDS011;4480;52.370;9.748;2023-07-24T05:57:35;4.13;;;2.27;;
8887;SDS011;4480;52.370;9.748;2023-07-24T06:00:02;2.93;;;2.20;;
8887;SDS011;4480;52.370;9.748;2023-07-24T06:02:30;3.90;;;2.37;;
8887;SDS011;4480;52.370;9.748;2023-07-24T06:04:56;4.63;;;3.27;;
8887;SDS011;4480;52.370;9.748;2023-07-24T06:07:23;3.90;;;2.77;;
8887;SDS011;4480;52.370;9.748;2023-07-24T06:09:50;4.37;;;2.53;;
8887;SDS011;4480;52.370;9.748;2023-07-24T06:12:18;2.73;;;2.10;;
8887;SDS011;4480;52.370;9.748;2023-07-24T06:14:45;2.70;;;2.50;;
8887;SDS011;4480;52.370;9.748;2023-07-24T06:17:12;3.23;;;2.17;;
8887;SDS011;4480;52.370;9.748;2023-07-24T06:19:39;3.30;;;2.43;;
8887;SDS011;4480;52.370;9.748;2023-07-24T06:22:06;2.50;;;2.10;;
8887;SDS011;4480;52.370;9.748;2023-07-24T06:24:33;2.57;;;2.03;;
8887;SDS011;4480;52.370;9.748;2023-07-24T06:27:00;2.57;;;2.17;;
8887;SDS011;4480;52.370;9.748;2023-07-24T06:29:28;2.90;;;2.47;;
8887;SDS011;4480;52.370;9.748;2023-07-24T06:31:55;2.80;;;2.37;;
8887;SDS011;4480;52.370;9.748;2023-07-24T06:34:22;3.27;;;2.23;;
8887;SDS011;4480;52.370;9.748;2023-07-24T06:36:49;3.47;;;2.57;;
8887;SDS011;4480;52.370;9.748;2023-07-24T06:39:15;3.23;;;2.47;;
8887;SDS011;4480;52.370;9.748;2023-07-24T06:41:42;4.13;;;2.33;;
8887;SDS011;4480;52.370;9.748;2023-07-24T06:44:09;4.70;;;2.30;;
8887;SDS011;4480;52.370;9.748;2023-07-24T06:46:37;2.67;;;2.30;;
8887;SDS011;4480;52.370;9.748;2023-07-24T06:49:04;3.90;;;3.60;;
8887;SDS011;4480;52.370;9.748;2023-07-24T06:51:31;2.83;;;2.53;;
8887;SDS011;4480;52.370;9.748;2023-07-24T06:53:57;3.33;;;3.00;;
8887;SDS011;4480;52.370;9.748;2023-07-24T06:56:24;3.87;;;2.90;;
8887;SDS011;4480;52.370;9.748;2023-07-24T06:58:51;3.80;;;3.30;;
8887;SDS011;4480;52.370;9.748;2023-07-24T07:01:18;6.93;;;2.83;;
8887;SDS011;4480;52.370;9.748;2023-07-24T07:03:46;2.90;;;2.27;;
8887;SDS011;4480;52.370;9.748;2023-07-24T07:06:13;2.73;;;2.00;;
8887;SDS011;4480;52.370;9.748;2023-07-24T07:08:40;3.57;;;3.10;;
8887;SDS011;4480;52.370;9.748;2023-07-24T07:11:06;3.10;;;2.30;;
8887;SDS011;4480;52.370;9.748;2023-07-24T07:13:33;3.90;;;2.63;;
8887;SDS011;4480;52.370;9.748;2023-07-24T07:16:00;3.67;;;2.70;;
8887;SDS011;4480;52.370;9.748;2023-07-24T07:18:27;2.83;;;2.53;;
8887;SDS011;4480;52.370;9.748;2023-07-24T07:20:55;2.80;;;2.43;;
8887;SDS011;4480;52.370;9.748;2023-07-24T07:23:22;3.10;;;2.80;;
8887;SDS011;4480;52.370;9.748;2023-07-24T07:25:50;5.50;;;3.37;;
8887;SDS011;4480;52.370;9.748;2023-07-24T07:28:17;2.77;;;2.47;;
8887;SDS011;4480;52.370;9.748;2023-07-24T07:30:44;4.40;;;3.00;;
8887;SDS011;4480;52.370;9.748;2023-07-24T07:33:11;5.33;;;2.77;;
8887;SDS011;4480;52.370;9.748;2023-07-24T07:35:37;3.93;;;3.40;;
8887;SDS011;4480;52.370;9.748;2023-07-24T07:38:06;6.20;;;3.23;;
8887;SDS011;4480;52.370;9.748;2023-07-24T07:40:32;6.20;;;3.60;;
8887;SDS011;4480;52.370;9.748;2023-07-24T07:42:59;9.00;;;3.27;;
8887;SDS011;4480;52.370;9.748;2023-07-24T07:45:26;6.73;;;3.50;;
8887;SDS011;4480;52.370;9.748;2023-07-24T07:47:52;5.47;;;3.57;;
8887;SDS011;4480;52.370;9.748;2023-07-24T07:50:19;5.00;;;3.37;;
8887;SDS011;4480;52.370;9.748;2023-07-24T07:52:49;5.53;;;3.97;;
8887;SDS011;4480;52.370;9.748;2023-07-24T07:55:18;5.67;;;3.90;;
8887;SDS011;4480;52.370;9.748;2023-07-24T07:57:45;6.50;;;3.87;;
8887;SDS011;4480;52.370;9.748;2023-07-24T08:00:12;7.90;;;3.90;;
8887;SDS011;4480;52.370;9.748;2023-07-24T08:02:39;7.77;;;4.47;;
8887;SDS011;4480;52.370;9.748;2023-07-24T08:05:07;6.53;;;4.20;;
8887;SDS011;4480;52.370;9.748;2023-07-24T08:07:34;6.17;;;4.10;;
8887;SDS011;4480;52.370;9.748;2023-07-24T08:10:01;5.70;;;3.50;;
8887;SDS011;4480;52.370;9.748;2023-07-24T08:12:29;6.63;;;3.77;;
8887;SDS011;4480;52.370;9.748;2023-07-24T08:14:56;4.27;;;3.70;;
8887;SDS011;4480;52.370;9.748;2023-07-24T08:17:22;7.90;;;3.93;;
8887;SDS011;4480;52.370;9.748;2023-07-24T08:19:49;4.70;;;3.70;;
8887;SDS011;4480;52.370;9.748;2023-07-24T08:22:16;6.27;;;3.77;;
8887;SDS011;4480;52.370;9.748;2023-07-24T08:24:44;3.73;;;3.43;;
8887;SDS011;4480;52.370;9.748;2023-07-24T08:27:11;6.70;;;4.47;;
8887;SDS011;4480;52.370;9.748;2023-07-24T08:29:40;3.47;;;3.17;;
8887;SDS011;4480;52.370;9.748;2023-07-24T08:32:07;4.43;;;3.30;;
8887;SDS011;4480;52.370;9.748;2023-07-24T08:34:34;4.60;;;3.10;;
8887;SDS011;4480;52.370;9.748;2023-07-24T08:37:00;8.63;;;6.23;;
8887;SDS011;4480;52.370;9.748;2023-07-24T08:39:27;5.53;;;4.17;;
8887;SDS011;4480;52.370;9.748;2023-07-24T08:41:54;5.57;;;3.53;;
8887;SDS011;4480;52.370;9.748;2023-07-24T08:44:22;4.03;;;3.67;;
8887;SDS011;4480;52.370;9.748;2023-07-24T08:46:51;4.57;;;4.10;;
8887;SDS011;4480;52.370;9.748;2023-07-24T08:49:18;4.23;;;3.57;;
8887;SDS011;4480;52.370;9.748;2023-07-24T08:51:46;5.07;;;4.03;;
8887;SDS011;4480;52.370;9.748;2023-07-24T08:54:13;4.40;;;3.83;;
8887;SDS011;4480;52.370;9.748;2023-07-24T08:56:41;6.40;;;4.40;;
8887;SDS011;4480;52.370;9.748;2023-07-24T08:59:12;5.90;;;3.70;;
8887;SDS011;4480;52.370;9.748;2023-07-24T09:01:39;5.70;;;3.80;;
8887;SDS011;4480;52.370;9.748;2023-07-24T09:04:07;5.80;;;4.07;;
8887;SDS011;4480;52.370;9.748;2023-07-24T09:06:34;4.47;;;4.07;;
8887;SDS011;4480;52.370;9.748;2023-07-24T09:09:01;4.47;;;4.07;;
8887;SDS011;4480;52.370;9.748;2023-07-24T09:11:28;5.23;;;4.73;;
8887;SDS011;4480;52.370;9.748;2023-07-24T09:13:55;4.40;;;4.00;;
8887;SDS011;4480;52.370;9.748;2023-07-24T09:16:22;6.43;;;4.40;;
8887;SDS011;4480;52.370;9.748;2023-07-24T09:18:50;4.63;;;4.07;;
8887;SDS011;4480;52.370;9.748;2023-07-24T09:21:27;4.40;;;4.00;;
8887;SDS011;4480;52.370;9.748;2023-07-24T09:23:55;5.20;;;4.70;;
8887;SDS011;4480;52.370;9.748;2023-07-24T09:26:22;4.50;;;4.10;;
8887;SDS011;4480;52.370;9.748;2023-07-24T09:28:52;4.27;;;3.93;;
8887;SDS011;4480;52.370;9.748;2023-07-24T09:31:20;5.20;;;4.00;;
8887;SDS011;4480;52.370;9.748;2023-07-24T09:33:46;6.07;;;4.27;;
8887;SDS011;4480;52.370;9.748;2023-07-24T09:36:13;5.97;;;4.50;;
8887;SDS011;4480;52.370;9.748;2023-07-24T09:38:42;4.80;;;4.20;;
8887;SDS011;4480;52.370;9.748;2023-07-24T09:41:08;7.00;;;4.00;;
8887;SDS011;4480;52.370;9.748;2023-07-24T09:43:36;6.43;;;5.83;;
8887;SDS011;4480;52.370;9.748;2023-07-24T09:46:04;4.70;;;4.17;;
8887;SDS011;4480;52.370;9.748;2023-07-24T09:48:31;4.37;;;3.77;;
8887;SDS011;4480;52.370;9.748;2023-07-24T09:51:00;4.60;;;4.20;;
8887;SDS011;4480;52.370;9.748;2023-07-24T09:53:30;4.17;;;3.87;;
8887;SDS011;4480;52.370;9.748;2023-07-24T09:56:02;4.93;;;4.53;;
8887;SDS011;4480;52.370;9.748;2023-07-24T09:58:31;4.73;;;4.33;;
8887;SDS011;4480;52.370;9.748;2023-07-24T10:00:59;4.43;;;3.90;;
8887;SDS011;4480;52.370;9.748;2023-07-24T10:03:28;4.43;;;4.03;;
8887;SDS011;4480;52.370;9.748;2023-07-24T10:05:55;4.50;;;4.10;;
8887;SDS011;4480;52.370;9.748;2023-07-24T10:08:22;7.70;;;4.20;;
8887;SDS011;4480;52.370;9.748;2023-07-24T10:10:50;4.23;;;3.93;;
8887;SDS011;4480;52.370;9.748;2023-07-24T10:13:20;4.90;;;4.50;;
8887;SDS011;4480;52.370;9.748;2023-07-24T10:15:48;6.33;;;5.13;;
8887;SDS011;4480;52.370;9.748;2023-07-24T10:18:15;8.20;;;5.17;;
8887;SDS011;4480;52.370;9.748;2023-07-24T10:20:44;5.30;;;4.80;;
8887;SDS011;4480;52.370;9.748;2023-07-24T10:23:11;4.27;;;3.87;;
8887;SDS011;4480;52.370;9.748;2023-07-24T10:25:44;4.60;;;4.20;;
8887;SDS011;4480;52.370;9.748;2023-07-24T10:28:12;4.37;;;3.97;;
8887;SDS011;4480;52.370;9.748;2023-07-24T10:30:42;3.70;;;3.40;;
8887;SDS011;4480;52.370;9.748;2023-07-24T10:33:10;4.40;;;3.63;;
8887;SDS011;4480;52.370;9.748;2023-07-24T10:35:42;5.07;;;4.30;;
8887;SDS011;4480;52.370;9.748;2023-07-24T10:38:11;4.13;;;3.73;;
8887;SDS011;4480;52.370;9.748;2023-07-24T10:40:39;4.20;;;3.90;;
8887;SDS011;4480;52.370;9.748;2023-07-24T10:43:06;5.13;;;4.63;;
8887;SDS011;4480;52.370;9.748;2023-07-24T10:45:47;5.73;;;4.30;;
8887;SDS011;4480;52.370;9.748;2023-07-24T10:48:15;4.63;;;4.23;;
8887;SDS011;4480;52.370;9.748;2023-07-24T10:50:42;4.10;;;3.70;;
8887;SDS011;4480;52.370;9.748;2023-07-24T10:53:11;4.60;;;4.20;;
8887;SDS011;4480;52.370;9.748;2023-07-24T10:55:40;4.40;;;3.70;;
8887;SDS011;4480;52.370;9.748;2023-07-24T10:58:07;6.40;;;4.43;;
8887;SDS011;4480;52.370;9.748;2023-07-24T11:00:35;5.13;;;4.73;;
8887;SDS011;4480;52.370;9.748;2023-07-24T11:03:03;5.60;;;5.07;;
8887;SDS011;4480;52.370;9.748;2023-07-24T11:05:31;5.43;;;4.77;;
8887;SDS011;4480;52.370;9.748;2023-07-24T11:07:59;5.77;;;4.30;;
8887;SDS011;4480;52.370;9.748;2023-07-24T11:10:25;5.53;;;5.13;;
8887;SDS011;4480;52.370;9.748;2023-07-24T11:12:54;5.87;;;5.37;;
8887;SDS011;4480;52.370;9.748;2023-07-24T11:15:25;5.33;;;4.83;;
8887;SDS011;4480;52.370;9.748;2023-07-24T11:17:52;5.43;;;4.93;;
8887;SDS011;4480;52.370;9.748;2023-07-24T11:20:21;5.90;;;5.40;;
8887;SDS011;4480;52.370;9.748;2023-07-24T11:22:48;5.70;;;5.20;;
8887;SDS011;4480;52.370;9.748;2023-07-24T11:25:15;5.80;;;5.30;;
8887;SDS011;4480;52.370;9.748;2023-07-24T11:27:46;5.60;;;5.10;;
8887;SDS011;4480;52.370;9.748;2023-07-24T11:30:18;5.67;;;5.17;;
8887;SDS011;4480;52.370;9.748;2023-07-24T11:32:46;6.53;;;5.10;;
8887;SDS011;4480;52.370;9.748;2023-07-24T11:35:14;5.47;;;4.90;;
8887;SDS011;4480;52.370;9.748;2023-07-24T11:37:42;5.17;;;4.70;;
8887;SDS011;4480;52.370;9.748;2023-07-24T11:40:09;6.80;;;6.20;;
8887;SDS011;4480;52.370;9.748;2023-07-24T11:42:39;5.17;;;4.77;;
8887;SDS011;4480;52.370;9.748;2023-07-24T11:45:08;6.23;;;5.73;;
8887;SDS011;4480;52.370;9.748;2023-07-24T11:47:45;5.93;;;5.30;;
8887;SDS011;4480;52.370;9.748;2023-07-24T11:50:14;5.63;;;5.13;;
8887;SDS011;4480;52.370;9.748;2023-07-24T11:52:43;6.87;;;4.30;;
8887;SDS011;4480;52.370;9.748;2023-07-24T11:55:11;4.50;;;4.10;;
8887;SDS011;4480;52.370;9.748;2023-07-24T11:57:39;4.63;;;4.23;;
8887;SDS011;4480;52.370;9.748;2023-07-24T12:00:18;4.97;;;4.47;;
8887;SDS011;4480;52.370;9.748;2023-07-24T12:02:46;5.00;;;4.47;;
8887;SDS011;4480;52.370;9.748;2023-07-24T12:05:13;7.33;;;4.43;;
8887;SDS011;4480;52.370;9.748;2023-07-24T12:07:42;4.60;;;4.20;;
8887;SDS011;4480;52.370;9.748;2023-07-24T12:10:11;4.90;;;4.50;;
8887;SDS011;4480;52.370;9.748;2023-07-24T12:12:39;6.00;;;4.83;;
8887;SDS011;4480;52.370;9.748;2023-07-24T12:15:09;5.07;;;4.57;;
8887;SDS011;4480;52.370;9.748;2023-07-24T12:17:36;5.63;;;5.13;;
8887;SDS011;4480;52.370;9.748;2023-07-24T12:20:03;5.30;;;4.90;;
8887;SDS011;4480;52.370;9.748;2023-07-24T12:22:33;5.33;;;4.83;;
8887;SDS011;4480;52.370;9.748;2023-07-24T12:25:01;5.17;;;4.67;;
8887;SDS011;4480;52.370;9.748;2023-07-24T12:27:28;5.63;;;5.00;;
8887;SDS011;4480;52.370;9.748;2023-07-24T12:29:56;7.10;;;5.57;;
8887;SDS011;4480;52.370;9.748;2023-07-24T12:32:23;6.03;;;5.40;;
8887;SDS011;4480;52.370;9.748;2023-07-24T12:34:50;5.93;;;5.03;;
8887;SDS011;4480;52.370;9.748;2023-07-24T12:37:18;5.60;;;5.10;;
8887;SDS011;4480;52.370;9.748;2023-07-24T12:39:45;7.33;;;6.63;;
8887;SDS011;4480;52.370;9.748;2023-07-24T12:42:14;7.60;;;6.77;;
8887;SDS011;4480;52.370;9.748;2023-07-24T12:44:41;7.67;;;6.13;;
8887;SDS011;4480;52.370;9.748;2023-07-24T12:47:09;7.10;;;6.43;;
8887;SDS011;4480;52.370;9.748;2023-07-24T12:49:36;8.43;;;7.17;;
8887;SDS011;4480;52.370;9.748;2023-07-24T12:52:03;8.77;;;7.67;;
8887;SDS011;4480;52.370;9.748;2023-07-24T12:54:31;9.73;;;7.80;;
8887;SDS011;4480;52.370;9.748;2023-07-24T12:56:58;10.27;;;9.27;;
8887;SDS011;4480;52.370;9.748;2023-07-24T12:59:26;7.97;;;7.10;;
8887;SDS011;4480;52.370;9.748;2023-07-24T13:01:52;7.47;;;6.77;;
8887;SDS011;4480;52.370;9.748;2023-07-24T13:04:19;8.80;;;7.90;;
8887;SDS011;4480;52.370;9.748;2023-07-24T13:06:46;10.63;;;7.73;;
8887;SDS011;4480;52.370;9.748;2023-07-24T13:09:13;8.23;;;6.47;;
8887;SDS011;4480;52.370;9.748;2023-07-24T13:11:40;6.27;;;5.67;;
8887;SDS011;4480;52.370;9.748;2023-07-24T13:14:20;6.23;;;5.70;;
8887;SDS011;4480;52.370;9.748;2023-07-24T13:16:49;6.13;;;5.53;;
8887;SDS011;4480;52.370;9.748;2023-07-24T13:19:16;5.57;;;5.07;;
8887;SDS011;4480;52.370;9.748;2023-07-24T13:21:43;5.17;;;4.67;;
8887;SDS011;4480;52.370;9.748;2023-07-24T13:24:12;4.43;;;4.03;;
8887;SDS011;4480;52.370;9.748;2023-07-24T13:26:39;5.70;;;5.20;;
8887;SDS011;4480;52.370;9.748;2023-07-24T13:29:05;6.00;;;5.40;;
8887;SDS011;4480;52.370;9.748;2023-07-24T13:31:32;4.70;;;4.30;;
8887;SDS011;4480;52.370;9.748;2023-07-24T13:34:01;3.63;;;3.33;;
8887;SDS011;4480;52.370;9.748;2023-07-24T13:36:28;4.10;;;3.80;;
8887;SDS011;4480;52.370;9.748;2023-07-24T13:38:55;3.53;;;3.23;;
8887;SDS011;4480;52.370;9.748;2023-07-24T13:41:21;4.80;;;4.40;;
8887;SDS011;4480;52.370;9.748;2023-07-24T13:43:48;4.70;;;4.30;;
8887;SDS011;4480;52.370;9.748;2023-07-24T13:46:15;4.30;;;3.57;;
8887;SDS011;4480;52.370;9.748;2023-07-24T13:48:42;4.60;;;4.20;;
8887;SDS011;4480;52.370;9.748;2023-07-24T13:51:10;4.43;;;4.03;;
8887;SDS011;4480;52.370;9.748;2023-07-24T13:53:37;6.60;;;4.07;;
8887;SDS011;4480;52.370;9.748;2023-07-24T13:56:04;4.27;;;3.87;;
8887;SDS011;4480;52.370;9.748;2023-07-24T13:58:31;3.37;;;3.17;;
8887;SDS011;4480;52.370;9.748;2023-07-24T14:00:58;3.20;;;2.90;;
8887;SDS011;4480;52.370;9.748;2023-07-24T14:03:24;3.93;;;3.60;;
8887;SDS011;4480;52.370;9.748;2023-07-24T14:05:54;3.93;;;3.63;;
8887;SDS011;4480;52.370;9.748;2023-07-24T14:08:23;4.37;;;3.97;;
8887;SDS011;4480;52.370;9.748;2023-07-24T14:10:50;4.67;;;4.27;;
8887;SDS011;4480;52.370;9.748;2023-07-24T14:13:17;4.90;;;4.50;;
8887;SDS011;4480;52.370;9.748;2023-07-24T14:15:44;5.33;;;4.83;;
8887;SDS011;4480;52.370;9.748;2023-07-24T14:18:10;6.30;;;5.23;;
8887;SDS011;4480;52.370;9.748;2023-07-24T14:20:37;5.80;;;5.20;;
8887;SDS011;4480;52.370;9.748;2023-07-24T14:23:05;5.90;;;5.30;;
8887;SDS011;4480;52.370;9.748;2023-07-24T14:25:34;6.33;;;5.83;;
8887;SDS011;4480;52.370;9.748;2023-07-24T14:28:01;6.23;;;5.73;;
8887;SDS011;4480;52.370;9.748;2023-07-24T14:30:28;6.97;;;6.27;;
8887;SDS011;4480;52.370;9.748;2023-07-24T14:32:55;6.97;;;6.37;;
8887;SDS011;4480;52.370;9.748;2023-07-24T14:35:22;6.17;;;5.67;;
8887;SDS011;4480;52.370;9.748;2023-07-24T14:37:49;5.60;;;5.10;;
8887;SDS011;4480;52.370;9.748;2023-07-24T14:40:16;5.40;;;4.90;;
8887;SDS011;4480;52.370;9.748;2023-07-24T14:42:44;4.97;;;4.43;;
8887;SDS011;4480;52.370;9.748;2023-07-24T14:45:11;5.47;;;5.07;;
8887;SDS011;4480;52.370;9.748;2023-07-24T14:47:38;4.70;;;4.30;;
8887;SDS011;4480;52.370;9.748;2023-07-24T14:50:05;4.87;;;4.47;;
8887;SDS011;4480;52.370;9.748;2023-07-24T14:52:32;5.40;;;4.90;;
8887;SDS011;4480;52.370;9.748;2023-07-24T14:54:59;4.57;;;4.17;;
8887;SDS011;4480;52.370;9.748;2023-07-24T14:57:26;5.50;;;4.97;;
8887;SDS011;4480;52.370;9.748;2023-07-24T14:59:54;5.73;;;4.87;;
8887;SDS011;4480;52.370;9.748;2023-07-24T15:02:21;5.20;;;4.70;;
8887;SDS011;4480;52.370;9.748;2023-07-24T15:04:48;5.10;;;4.70;;
8887;SDS011;4480;52.370;9.748;2023-07-24T15:07:14;5.07;;;4.67;;
8887;SDS011;4480;52.370;9.748;2023-07-24T15:09:41;4.97;;;4.57;;
8887;SDS011;4480;52.370;9.748;2023-07-24T15:12:08;5.53;;;4.50;;
8887;SDS011;4480;52.370;9.748;2023-07-24T15:14:35;5.20;;;4.40;;
8887;SDS011;4480;52.370;9.748;2023-07-24T15:17:04;4.77;;;4.47;;
8887;SDS011;4480;52.370;9.748;2023-07-24T15:19:32;5.47;;;5.07;;